createdAt,value
2022-11-27T00:03:04.272Z,27.63
2022-11-27T00:07:57.837Z,30.60
2022-11-27T00:12:52.602Z,24.83
2022-11-27T00:17:46.262Z,33.47
2022-11-27T00:22:40.643Z,34.30
2022-11-27T00:27:33.936Z,26.43
2022-11-27T00:32:28.581Z,21.37
2022-11-27T00:37:21.865Z,17.77
2022-11-27T00:42:15.216Z,23.57
2022-11-27T00:47:08.579Z,19.03
2022-11-27T00:52:03.377Z,20.07
2022-11-27T00:56:56.960Z,22.83
2022-11-27T01:01:50.449Z,22.53
2022-11-27T01:06:48.382Z,23.60
2022-11-27T01:11:44.019Z,18.37
2022-11-27T01:16:42.673Z,21.57
2022-11-27T01:21:36.906Z,19.03
2022-11-27T01:26:30.295Z,19.00
2022-11-27T01:31:26.760Z,23.67
2022-11-27T01:36:20.187Z,21.30
2022-11-27T01:41:16.528Z,23.83
2022-11-27T01:46:23.477Z,21.67
2022-11-27T01:51:18.330Z,22.87
2022-11-27T01:56:12.259Z,28.07
2022-11-27T02:01:07.895Z,29.40
2022-11-27T02:06:01.503Z,26.93
2022-11-27T02:11:03.772Z,26.73
2022-11-27T02:16:16.409Z,27.30
2022-11-27T02:21:18.317Z,29.20
2022-11-27T02:26:38.837Z,22.92
2022-11-27T02:31:40.197Z,23.00
2022-11-27T02:36:36.703Z,25.90
2022-11-27T02:41:34.692Z,24.23
2022-11-27T02:46:29.963Z,26.20
2022-11-27T02:51:29.273Z,27.47
2022-11-27T02:56:27.417Z,25.97
2022-11-27T03:01:23.597Z,26.67
2022-11-27T03:06:25.131Z,26.37
2022-11-27T03:11:20.010Z,25.67
2022-11-27T03:16:21.909Z,27.07
2022-11-27T03:21:24.280Z,23.10
2022-11-27T03:26:17.731Z,27.17
2022-11-27T03:31:12.981Z,28.00
2022-11-27T03:36:13.808Z,29.13
2022-11-27T03:41:12.639Z,29.70
2022-11-27T03:46:12.414Z,29.00
2022-11-27T03:51:18.745Z,24.87
2022-11-27T03:56:18.411Z,30.20
2022-11-27T04:01:15.837Z,28.30
2022-11-27T04:06:11.896Z,28.53
2022-11-27T04:11:05.475Z,29.33
2022-11-27T04:16:02.481Z,29.40
2022-11-27T04:20:59.128Z,27.40
2022-11-27T04:25:53.852Z,27.80
2022-11-27T04:30:51.972Z,27.53
2022-11-27T04:35:45.387Z,33.30
2022-11-27T04:40:38.826Z,30.23
2022-11-27T04:45:33.733Z,29.90
2022-11-27T04:50:27.184Z,31.57
2022-11-27T04:55:20.533Z,33.17
2022-11-27T05:00:14.841Z,26.30
2022-11-27T05:05:10.167Z,31.60
2022-11-27T05:10:03.642Z,29.10
2022-11-27T05:14:59.629Z,32.13
2022-11-27T05:19:56.441Z,30.03
2022-11-27T05:24:50.994Z,28.07
2022-11-27T05:29:44.228Z,33.10
2022-11-27T05:34:37.635Z,32.73
2022-11-27T05:39:30.967Z,35.13
2022-11-27T05:44:25.897Z,28.90
2022-11-27T05:49:21.376Z,29.67
2022-11-27T05:54:14.626Z,28.20
2022-11-27T05:59:10.981Z,28.40
2022-11-27T06:04:06.914Z,28.83
2022-11-27T06:09:05.693Z,19.97
2022-11-27T06:14:03.666Z,23.37
2022-11-27T06:18:57.349Z,23.03
2022-11-27T06:23:55.247Z,25.03
2022-11-27T06:28:49.906Z,23.40
2022-11-27T06:33:43.536Z,38.80
2022-11-27T06:38:38.447Z,43.77
2022-11-27T06:43:33.682Z,29.90
2022-11-27T06:48:27.156Z,31.83
2022-11-27T06:53:20.870Z,41.17
2022-11-27T06:58:14.195Z,41.57
2022-11-27T07:03:08.813Z,38.67
2022-11-27T07:08:02.151Z,35.73
2022-11-27T07:12:55.425Z,34.80
2022-11-27T07:17:50.542Z,36.17
2022-11-27T07:22:45.053Z,38.37
2022-11-27T07:27:38.255Z,34.57
2022-11-27T07:32:32.274Z,29.53
2022-11-27T07:37:25.593Z,22.33
2022-11-27T07:47:33.402Z,30.47
2022-11-27T07:52:26.620Z,31.97
2022-11-27T07:57:21.105Z,25.33
2022-11-27T08:02:14.411Z,31.37
2022-11-27T08:07:07.774Z,24.60
2022-11-27T08:12:03.998Z,27.67
2022-11-27T08:16:59.597Z,41.27
2022-11-27T08:21:52.832Z,23.20
2022-11-27T08:26:46.095Z,28.03
2022-11-27T08:31:39.350Z,22.57
2022-11-27T08:36:33.858Z,29.67
2022-11-27T08:41:27.021Z,25.53
2022-11-27T08:46:20.195Z,25.77
2022-11-27T08:51:15.592Z,27.27
2022-11-27T08:56:15.195Z,28.27
2022-11-27T09:01:10.191Z,33.30
2022-11-27T09:06:03.433Z,27.50
2022-11-27T09:11:00.755Z,29.20
2022-11-27T09:15:56.632Z,31.53
2022-11-27T09:20:56.977Z,38.00
2022-11-27T09:25:50.303Z,43.67
2022-11-27T09:30:43.423Z,36.80
2022-11-27T09:35:42.342Z,36.47
2022-11-27T09:40:36.107Z,36.17
2022-11-27T09:45:29.632Z,36.17
2022-11-27T09:50:27.088Z,33.10
2022-11-27T09:55:26.340Z,34.07
2022-11-27T10:00:21.801Z,30.60
2022-11-27T10:05:22.206Z,36.53
2022-11-27T10:10:35.895Z,37.93
2022-11-27T10:15:39.273Z,40.57
2022-11-27T10:20:40.077Z,53.60
2022-11-27T10:25:42.621Z,47.70
2022-11-27T10:30:40.798Z,39.87
2022-11-27T10:35:34.250Z,37.30
2022-11-27T10:40:32.916Z,35.60
2022-11-27T10:45:35.017Z,44.77
2022-11-27T10:50:28.254Z,36.50
2022-11-27T10:55:35.348Z,42.37
2022-11-27T11:00:30.008Z,44.20
2022-11-27T11:05:41.002Z,36.93
2022-11-27T11:10:39.995Z,35.60
2022-11-27T11:15:34.979Z,52.60
2022-11-27T11:20:28.378Z,32.80
2022-11-27T11:25:23.090Z,34.92
2022-11-27T11:30:23.778Z,31.45
2022-11-27T11:35:29.842Z,30.98
2022-11-27T11:40:27.991Z,34.03
2022-11-27T11:45:23.225Z,34.27
2022-11-27T11:50:22.723Z,33.20
2022-11-27T11:55:21.692Z,34.15
2022-11-27T12:00:16.966Z,36.83
2022-11-27T12:05:22.504Z,38.33
2022-11-27T12:10:25.996Z,34.58
2022-11-27T12:15:27.517Z,37.45
2022-11-27T12:20:25.478Z,39.45
2022-11-27T12:25:29.257Z,32.53
2022-11-27T12:30:28.393Z,44.70
2022-11-27T12:35:32.826Z,47.50
2022-11-27T12:40:40.910Z,33.23
2022-11-27T12:45:40.194Z,41.55
2022-11-27T12:50:40.577Z,49.33
2022-11-27T12:55:35.978Z,29.98
2022-11-27T13:00:33.300Z,41.63
2022-11-27T13:05:29.341Z,54.53
2022-11-27T13:10:28.304Z,46.10
2022-11-27T13:15:28.924Z,35.10
2022-11-27T13:25:18.492Z,36.33
2022-11-27T13:30:21.633Z,35.50
2022-11-27T13:35:27.979Z,35.33
2022-11-27T13:40:25.036Z,48.20
2022-11-27T13:45:27.220Z,39.95
2022-11-27T13:50:28.170Z,40.50
2022-11-27T13:55:26.672Z,37.38
2022-11-27T14:00:20.595Z,42.13
2022-11-27T14:05:19.738Z,41.30
2022-11-27T14:10:17.556Z,58.88
2022-11-27T14:15:25.496Z,46.35
2022-11-27T14:20:31.070Z,38.22
2022-11-27T14:25:30.366Z,42.10
2022-11-27T14:30:45.728Z,61.67
2022-11-27T14:36:09.206Z,55.85
2022-11-27T14:41:40.548Z,71.07
2022-11-27T14:46:42.711Z,58.78
2022-11-27T14:51:39.909Z,54.38
2022-11-27T14:57:01.470Z,84.30
2022-11-27T15:02:38.611Z,75.28
2022-11-27T15:08:30.081Z,75.87
2022-11-27T15:13:58.914Z,83.10
2022-11-27T15:18:56.503Z,80.33
2022-11-27T15:24:05.703Z,77.63
2022-11-27T15:29:00.629Z,93.37
2022-11-27T15:34:02.537Z,80.53
2022-11-27T15:39:16.385Z,88.47
2022-11-27T15:44:11.399Z,90.90
2022-11-27T15:49:04.842Z,89.90
2022-11-27T15:53:58.255Z,73.60
2022-11-27T15:58:51.506Z,62.33
2022-11-27T16:03:46.492Z,62.50
2022-11-27T16:08:54.358Z,65.37
2022-11-27T16:13:50.302Z,58.90
2022-11-27T16:18:47.080Z,51.87
2022-11-27T16:23:41.257Z,56.30
2022-11-27T16:28:38.057Z,60.75
2022-11-27T16:33:43.126Z,90.77
2022-11-27T16:38:39.766Z,105.05
2022-11-27T16:43:41.499Z,102.47
2022-11-27T16:48:45.490Z,94.30
2022-11-27T16:53:44.270Z,113.93
2022-11-27T16:58:42.479Z,105.57
2022-11-27T17:03:37.710Z,101.97
2022-11-27T17:08:31.144Z,74.78
2022-11-27T17:13:27.147Z,65.83
2022-11-27T17:18:27.314Z,72.20
2022-11-27T17:23:24.818Z,67.97
2022-11-27T17:28:21.497Z,58.50
2022-11-27T17:33:18.889Z,56.90
2022-11-27T17:38:13.525Z,66.63
2022-11-27T17:43:06.911Z,110.50
2022-11-27T17:48:06.322Z,95.67
2022-11-27T17:53:01.227Z,114.97
2022-11-27T17:57:54.947Z,145.87
2022-11-27T18:02:52.386Z,126.80
2022-11-27T18:07:47.777Z,103.05
2022-11-27T18:12:45.795Z,113.63
2022-11-27T18:17:40.553Z,109.63
2022-11-27T18:22:38.719Z,106.07
2022-11-27T18:27:33.302Z,103.90
2022-11-27T18:32:28.132Z,117.37
2022-11-27T18:37:21.705Z,106.57
2022-11-27T18:42:17.793Z,108.43
2022-11-27T18:47:14.044Z,114.63
2022-11-27T18:52:10.548Z,123.30
2022-11-27T18:57:07.284Z,121.67
2022-11-27T19:02:05.727Z,117.70
2022-11-27T19:07:02.870Z,126.43
2022-11-27T19:11:59.377Z,151.73
2022-11-27T19:16:55.565Z,187.15
2022-11-27T19:21:54.448Z,184.83
2022-11-27T19:27:07.504Z,150.00
2022-11-27T19:32:03.601Z,148.52
2022-11-27T19:37:07.281Z,135.27
2022-11-27T19:42:01.104Z,126.43
2022-11-27T19:47:04.543Z,87.20
2022-11-27T19:52:04.273Z,80.18
2022-11-27T19:57:05.400Z,116.67
2022-11-27T20:02:01.078Z,161.88
2022-11-27T20:06:57.588Z,137.10
2022-11-27T20:11:52.784Z,137.23
2022-11-27T20:16:46.469Z,157.77
2022-11-27T20:21:43.254Z,170.57
2022-11-27T20:26:44.291Z,162.50
2022-11-27T20:31:39.450Z,153.57
2022-11-27T20:36:40.374Z,151.30
2022-11-27T20:41:40.834Z,150.23
2022-11-27T20:46:35.943Z,143.43
2022-11-27T20:51:33.931Z,129.23
2022-11-27T20:56:41.071Z,91.57
2022-11-27T21:01:38.334Z,96.30
2022-11-27T21:06:36.179Z,99.90
2022-11-27T21:11:34.018Z,89.87
2022-11-27T21:16:32.536Z,74.27
2022-11-27T21:21:26.904Z,71.83
2022-11-27T21:26:20.533Z,68.07
2022-11-27T21:31:20.020Z,62.03
2022-11-27T21:36:15.940Z,60.13
2022-11-27T21:41:14.166Z,63.43
2022-11-27T21:46:08.682Z,58.13
2022-11-27T21:51:02.736Z,60.67
2022-11-27T21:55:57.873Z,63.47
2022-11-27T22:00:54.563Z,60.27
2022-11-27T22:05:49.630Z,64.10
2022-11-27T22:10:43.217Z,66.87
2022-11-27T22:15:39.053Z,62.13
2022-11-27T22:20:43.086Z,66.57
2022-11-27T22:25:42.273Z,61.03
2022-11-27T22:30:40.848Z,60.27
2022-11-27T22:35:47.496Z,60.43
2022-11-27T22:40:43.684Z,65.00
2022-11-27T22:45:48.015Z,58.17
2022-11-27T22:50:44.408Z,55.85
2022-11-27T22:55:41.128Z,54.43
2022-11-27T23:00:51.064Z,53.47
2022-11-27T23:05:47.723Z,52.72
2022-11-27T23:10:47.023Z,56.05
2022-11-27T23:15:43.839Z,50.20
2022-11-27T23:20:45.364Z,56.95
2022-11-27T23:25:39.710Z,51.47
2022-11-27T23:30:34.411Z,54.23
2022-11-27T23:35:30.192Z,51.47
2022-11-27T23:40:25.734Z,52.30
2022-11-27T23:45:19.399Z,50.63
2022-11-27T23:50:13.312Z,53.83
2022-11-27T23:55:10.212Z,52.13
